x

Passage Island, Mi (pilm4) Weather Station

5:00pm - Tue 28th Mar 2017 All times are CDT. -5 hours from GMT.

  • Wind
    5mph
  • Air Temp 36°f
  • Sea Pressure 1025.3mb
  • Passage Island, Mi
  • Passage Island, Mi

More Historic Weather Station data

Upgrade to MSW Pro to gain access to the past 30 days of data for over 8000 Wavebouys and Weather Stations around the globe.

Join Pro

Comparision Forecast

View Surf forecast
   
Tue 03/28 5:00pm 5
mph
1025.3mb 36f
4:00pm 6
mph
1025.1mb 35f
3:00pm 5
mph
1025mb 35f
2:00pm 3
mph
1025mb 35f
1:00pm 8
mph
1024.5mb 35f
12:00pm 7 8 mph 1024.3mb 35f
11:00am 7 9 mph 1023.8mb 38f
10:00am 10 14 mph 1023.2mb 36f
9:00am 6 9 mph 1022.6mb 35f
8:00am 9 10 mph 1022.1mb 36f
7:00am 10
mph
1021.5mb 37f
6:00am 9 10 mph 1020.7mb 36f
5:00am 9 10 mph 1020.3mb 35f
4:00am 11 13 mph 1020mb 37f
3:00am 10
mph
1019.6mb 36f
2:00am 13 14 mph 1019.7mb 36f
1:00am 13 14 mph 1019.2mb 36f
12:00am 14 15 mph 1018.7mb 36f
Mon 03/27 11:00pm 16 17 mph 1018.3mb 36f
10:00pm 13 14 mph 1018.1mb 36f
9:00pm 16 17 mph 1017.9mb 36f
8:00pm 11
mph
1017.6mb 35f
7:00pm 14 15 mph 1017.2mb 36f
6:00pm 6 7 mph 1016.9mb 37f
5:00pm 6
mph
1017mb 36f
4:00pm 13 14 mph 1016.6mb 36f
3:00pm 7 8 mph 1016.6mb 38f
2:00pm 10 11 mph 1016.9mb 35f
1:00pm 9
mph
1016.6mb 35f
12:00pm 9 10 mph 1016.7mb 34f
11:00am 8 9 mph 1016.8mb 34f
10:00am 10 11 mph 1016.4mb 33f
9:00am 13 14 mph 1016mb 33f
8:00am 17
mph
1015.7mb 32f
7:00am 18 20 mph 1015.2mb 32f
6:00am 18 20 mph 1014.9mb 31f
5:00am 10 11 mph 1014.3mb 31f
4:00am 14
mph
1014.3mb 31f
3:00am 13 14 mph 1014.6mb 31f
2:00am 8 9 mph 1014.9mb 32f
1:00am 5 6 mph 1014.9mb 33f
12:00am 3 5 mph 1015mb 33f
Sun 03/26 11:00pm 3
mph
1015.5mb 33f
10:00pm 6 7 mph 1015.6mb 33f
9:00pm 8
mph
1016.1mb 33f
8:00pm 10 11 mph 1016.2mb 33f
7:00pm 11 13 mph 1016.1mb 33f
6:00pm 15 16 mph 1015.8mb 32f
5:00pm 8 10 mph 1016.1mb 33f
4:00pm 11 13 mph 1016.2mb 33f
3:00pm 14 15 mph 1016.6mb 33f
2:00pm 13 14 mph 1016.9mb 33f
1:00pm 13 14 mph 1017.4mb 33f
12:00pm 15 16 mph 1018mb 33f
11:00am 16 17 mph 1018.8mb 33f
10:00am 17 20 mph 1019.1mb 33f
9:00am 18 20 mph 1019.3mb 33f
8:00am 18 21 mph 1020mb 33f
7:00am 22 24 mph 1020.4mb 34f
6:00am 23 25 mph 1020.3mb 34f
5:00am 21 23 mph 1020.9mb 34f
4:00am 21 22 mph 1021.6mb 35f
3:00am 16 18 mph 1022.4mb 35f
2:00am 16 17 mph 1022.9mb 35f
1:00am 16 17 mph 1024mb 35f
12:00am 7 8 mph 1024.9mb 33f
Sat 03/25 11:00pm 10
mph
1025.7mb 33f
10:00pm 14 15 mph 1026.8mb 32f
9:00pm 13 14 mph 1027.5mb 31f
8:00pm 11 13 mph 1028mb 30f
7:00pm 11 13 mph 1028.3mb 29f
6:00pm 10 13 mph 1028.1mb 29f
5:00pm 13 14 mph 1028.7mb 29f
4:00pm 15 17 mph 1029.4mb 28f
3:00pm 16 17 mph 1030.1mb 28f
2:00pm 15 17 mph 1030.7mb 27f
1:00pm 15 16 mph 1031.5mb 27f
12:00pm 13 15 mph 1032mb 27f
11:00am 14 16 mph 1032.6mb 26f
10:00am 17 20 mph 1032mb 27f
9:00am 17 20 mph 1032.7mb 26f
8:00am 18 21 mph 1031.9mb 26f
7:00am 21 24 mph 1031mb 26f
6:00am 22 24 mph 1030.9mb 26f
5:00am 18 21 mph 1030.9mb 27f
4:00am 22 24 mph 1030.3mb 28f
3:00am 22 24 mph 1030.1mb 28f
2:00am 24 26 mph 1028.8mb 29f
1:00am 25 26 mph 1028.7mb 31f
12:00am 24 26 mph 1028.5mb 32f